sensor_id;sensor_type;location;lat;lon;timestamp;pressure;altitude;pressure_sealevel;temperature;humidity
43846;BME280;32485;51.112;13.640;2022-08-03T00:01:15;100296.28;;;22.30;56.55
43846;BME280;32485;51.112;13.640;2022-08-03T00:03:42;100285.28;;;22.27;56.85
43846;BME280;32485;51.112;13.640;2022-08-03T00:06:10;100290.41;;;22.24;56.52
43846;BME280;32485;51.112;13.640;2022-08-03T00:08:37;100288.84;;;22.23;56.54
43846;BME280;32485;51.112;13.640;2022-08-03T00:11:04;100289.25;;;22.18;57.03
43846;BME280;32485;51.112;13.640;2022-08-03T00:13:33;100289.25;;;22.15;56.85
43846;BME280;32485;51.112;13.640;2022-08-03T00:16:00;100288.09;;;22.12;57.29
43846;BME280;32485;51.112;13.640;2022-08-03T00:18:28;100287.31;;;22.08;57.31
43846;BME280;32485;51.112;13.640;2022-08-03T00:20:55;100281.78;;;22.04;57.41
43846;BME280;32485;51.112;13.640;2022-08-03T00:23:22;100287.28;;;22.01;57.68
43846;BME280;32485;51.112;13.640;2022-08-03T00:25:49;100278.66;;;21.99;58.15
43846;BME280;32485;51.112;13.640;2022-08-03T00:28:16;100279.47;;;21.96;57.93
43846;BME280;32485;51.112;13.640;2022-08-03T00:30:44;100284.19;;;21.92;58.28
43846;BME280;32485;51.112;13.640;2022-08-03T00:33:11;100279.47;;;21.88;58.58
43846;BME280;32485;51.112;13.640;2022-08-03T00:35:39;100283.78;;;21.86;58.57
43846;BME280;32485;51.112;13.640;2022-08-03T00:38:06;100286.94;;;21.84;58.35
43846;BME280;32485;51.112;13.640;2022-08-03T00:40:33;100278.28;;;21.82;58.73
43846;BME280;32485;51.112;13.640;2022-08-03T00:43:03;100281.06;;;21.79;59.01
43846;BME280;32485;51.112;13.640;2022-08-03T00:45:32;100279.47;;;21.70;58.96
43846;BME280;32485;51.112;13.640;2022-08-03T00:48:03;100280.25;;;21.71;59.46
43846;BME280;32485;51.112;13.640;2022-08-03T00:50:34;100279.47;;;21.67;59.41
43846;BME280;32485;51.112;13.640;2022-08-03T00:53:05;100280.25;;;21.64;59.96
43846;BME280;32485;51.112;13.640;2022-08-03T00:55:34;100273.97;;;21.60;60.03
43846;BME280;32485;51.112;13.640;2022-08-03T00:58:02;100285.38;;;21.58;60.37
43846;BME280;32485;51.112;13.640;2022-08-03T01:00:32;100279.47;;;21.52;60.43
43846;BME280;32485;51.112;13.640;2022-08-03T01:03:05;100275.13;;;21.51;60.24
43846;BME280;32485;51.112;13.640;2022-08-03T01:05:39;100277.88;;;21.44;60.28
43846;BME280;32485;51.112;13.640;2022-08-03T01:08:17;100276.69;;;21.45;60.43
43846;BME280;32485;51.112;13.640;2022-08-03T01:10:53;100281.00;;;21.43;60.73
43846;BME280;32485;51.112;13.640;2022-08-03T01:13:29;100279.03;;;21.43;61.28
43846;BME280;32485;51.112;13.640;2022-08-03T01:16:02;100283.38;;;21.41;61.26
43846;BME280;32485;51.112;13.640;2022-08-03T01:18:40;100279.03;;;21.36;61.12
43846;BME280;32485;51.112;13.640;2022-08-03T01:21:15;100279.44;;;21.31;61.10
43846;BME280;32485;51.112;13.640;2022-08-03T01:24:02;100275.50;;;21.25;61.18
43846;BME280;32485;51.112;13.640;2022-08-03T01:27:02;100273.53;;;21.21;61.90
43846;BME280;32485;51.112;13.640;2022-08-03T01:30:04;100270.38;;;21.16;61.88
43846;BME280;32485;51.112;13.640;2022-08-03T01:32:40;100276.66;;;21.16;61.77
43846;BME280;32485;51.112;13.640;2022-08-03T01:35:15;100273.13;;;21.16;62.06
43846;BME280;32485;51.112;13.640;2022-08-03T01:37:49;100259.75;;;21.11;62.08
43846;BME280;32485;51.112;13.640;2022-08-03T01:40:19;100264.47;;;21.14;62.43
43846;BME280;32485;51.112;13.640;2022-08-03T01:42:47;100264.47;;;21.14;62.29
43846;BME280;32485;51.112;13.640;2022-08-03T01:45:17;100268.41;;;21.09;62.41
43846;BME280;32485;51.112;13.640;2022-08-03T01:47:47;100272.31;;;21.08;62.58
43846;BME280;32485;51.112;13.640;2022-08-03T01:50:18;100266.81;;;21.01;62.94
43846;BME280;32485;51.112;13.640;2022-08-03T01:52:48;100276.59;;;20.98;63.36
43846;BME280;32485;51.112;13.640;2022-08-03T01:55:18;100275.81;;;20.94;63.65
43846;BME280;32485;51.112;13.640;2022-08-03T01:57:47;100273.88;;;20.95;63.52
43846;BME280;32485;51.112;13.640;2022-08-03T02:00:17;100269.16;;;20.92;63.55
43846;BME280;32485;51.112;13.640;2022-08-03T02:02:48;100272.66;;;20.88;64.22
43846;BME280;32485;51.112;13.640;2022-08-03T02:05:16;100278.16;;;20.88;64.57
43846;BME280;32485;51.112;13.640;2022-08-03T02:07:45;100271.47;;;20.82;64.79
43846;BME280;32485;51.112;13.640;2022-08-03T02:10:15;100268.34;;;20.80;64.72
43846;BME280;32485;51.112;13.640;2022-08-03T02:12:45;100264.41;;;20.81;64.82
43846;BME280;32485;51.112;13.640;2022-08-03T02:15:16;100262.03;;;20.80;64.81
43846;BME280;32485;51.112;13.640;2022-08-03T02:17:46;100267.13;;;20.81;65.14
43846;BME280;32485;51.112;13.640;2022-08-03T02:20:14;100263.22;;;20.82;65.18
43846;BME280;32485;51.112;13.640;2022-08-03T02:22:43;100255.78;;;20.79;64.99
43846;BME280;32485;51.112;13.640;2022-08-03T02:25:12;100252.63;;;20.81;64.61
43846;BME280;32485;51.112;13.640;2022-08-03T02:27:45;100260.09;;;20.84;64.84
43846;BME280;32485;51.112;13.640;2022-08-03T02:30:14;100259.69;;;20.85;64.79
43846;BME280;32485;51.112;13.640;2022-08-03T02:32:50;100254.19;;;20.78;64.81
43846;BME280;32485;51.112;13.640;2022-08-03T02:35:21;100256.94;;;20.78;65.01
43846;BME280;32485;51.112;13.640;2022-08-03T02:37:52;100253.00;;;20.76;64.93
43846;BME280;32485;51.112;13.640;2022-08-03T02:40:22;100261.66;;;20.81;64.86
43846;BME280;32485;51.112;13.640;2022-08-03T02:42:53;100253.03;;;20.79;65.09
43846;BME280;32485;51.112;13.640;2022-08-03T02:45:24;100244.78;;;20.72;65.44
43846;BME280;32485;51.112;13.640;2022-08-03T02:47:58;100254.97;;;20.75;65.27
43846;BME280;32485;51.112;13.640;2022-08-03T02:50:27;100264.38;;;20.74;65.16
43846;BME280;32485;51.112;13.640;2022-08-03T02:52:56;100257.31;;;20.73;65.45
43846;BME280;32485;51.112;13.640;2022-08-03T02:55:25;100253.41;;;20.70;65.44
43846;BME280;32485;51.112;13.640;2022-08-03T02:57:54;100256.50;;;20.69;65.71
43846;BME280;32485;51.112;13.640;2022-08-03T03:00:21;100256.47;;;20.65;65.82
43846;BME280;32485;51.112;13.640;2022-08-03T03:02:50;100267.44;;;20.62;66.24
43846;BME280;32485;51.112;13.640;2022-08-03T03:05:20;100258.81;;;20.60;65.97
43846;BME280;32485;51.112;13.640;2022-08-03T03:07:47;100260.38;;;20.61;65.88
43846;BME280;32485;51.112;13.640;2022-08-03T03:10:15;100259.59;;;20.60;65.75
43846;BME280;32485;51.112;13.640;2022-08-03T03:12:42;100265.47;;;20.59;65.96
43846;BME280;32485;51.112;13.640;2022-08-03T03:15:10;100259.19;;;20.58;66.22
43846;BME280;32485;51.112;13.640;2022-08-03T03:17:38;100262.72;;;20.59;65.59
43846;BME280;32485;51.112;13.640;2022-08-03T03:20:08;100267.81;;;20.57;65.65
43846;BME280;32485;51.112;13.640;2022-08-03T03:22:37;100261.13;;;20.50;65.70
43846;BME280;32485;51.112;13.640;2022-08-03T03:25:07;100267.75;;;20.46;66.08
43846;BME280;32485;51.112;13.640;2022-08-03T03:27:34;100262.66;;;20.44;66.43
43846;BME280;32485;51.112;13.640;2022-08-03T03:30:03;100273.22;;;20.42;66.72
43846;BME280;32485;51.112;13.640;2022-08-03T03:32:30;100264.22;;;20.42;66.67
43846;BME280;32485;51.112;13.640;2022-08-03T03:34:58;100255.22;;;20.41;66.60
43846;BME280;32485;51.112;13.640;2022-08-03T03:37:26;100264.59;;;20.40;66.70
43846;BME280;32485;51.112;13.640;2022-08-03T03:39:54;100259.47;;;20.35;66.97
43846;BME280;32485;51.112;13.640;2022-08-03T03:42:22;100261.84;;;20.40;66.61
43846;BME280;32485;51.112;13.640;2022-08-03T03:44:49;100259.50;;;20.39;66.51
43846;BME280;32485;51.112;13.640;2022-08-03T03:47:16;100257.50;;;20.32;66.70
43846;BME280;32485;51.112;13.640;2022-08-03T03:49:44;100258.69;;;20.34;66.72
43846;BME280;32485;51.112;13.640;2022-08-03T03:52:11;100261.81;;;20.33;66.92
43846;BME280;32485;51.112;13.640;2022-08-03T03:54:40;100261.03;;;20.32;67.03
43846;BME280;32485;51.112;13.640;2022-08-03T03:57:10;100261.81;;;20.33;66.95
43846;BME280;32485;51.112;13.640;2022-08-03T03:59:38;100261.81;;;20.33;67.00
43846;BME280;32485;51.112;13.640;2022-08-03T04:02:05;100257.09;;;20.26;67.13
43846;BME280;32485;51.112;13.640;2022-08-03T04:04:34;100270.06;;;20.33;67.05
43846;BME280;32485;51.112;13.640;2022-08-03T04:07:19;100268.47;;;20.32;67.05
43846;BME280;32485;51.112;13.640;2022-08-03T04:10:12;100266.50;;;20.29;67.09
43846;BME280;32485;51.112;13.640;2022-08-03T04:12:59;100267.69;;;20.28;67.01
43846;BME280;32485;51.112;13.640;2022-08-03T04:15:28;100267.25;;;20.22;67.55
43846;BME280;32485;51.112;13.640;2022-08-03T04:17:58;100255.88;;;20.20;67.36
43846;BME280;32485;51.112;13.640;2022-08-03T04:20:28;100272.78;;;20.26;67.57
43846;BME280;32485;51.112;13.640;2022-08-03T04:22:56;100275.84;;;20.17;67.93
43846;BME280;32485;51.112;13.640;2022-08-03T04:25:28;100268.00;;;20.15;67.77
43846;BME280;32485;51.112;13.640;2022-08-03T04:27:58;100267.25;;;20.22;67.50
43846;BME280;32485;51.112;13.640;2022-08-03T04:30:27;100270.03;;;20.29;67.36
43846;BME280;32485;51.112;13.640;2022-08-03T04:32:56;100271.63;;;20.30;67.15
43846;BME280;32485;51.112;13.640;2022-08-03T04:35:25;100282.63;;;20.34;67.39
43846;BME280;32485;51.112;13.640;2022-08-03T04:37:54;100275.94;;;20.31;67.48
43846;BME280;32485;51.112;13.640;2022-08-03T04:40:27;100285.72;;;20.32;67.34
43846;BME280;32485;51.112;13.640;2022-08-03T04:42:59;100273.19;;;20.35;67.31
43846;BME280;32485;51.112;13.640;2022-08-03T04:45:27;100275.97;;;20.39;66.84
43846;BME280;32485;51.112;13.640;2022-08-03T04:47:56;100280.31;;;20.47;66.76
43846;BME280;32485;51.112;13.640;2022-08-03T04:50:24;100283.88;;;20.54;66.50
43846;BME280;32485;51.112;13.640;2022-08-03T04:52:52;100278.81;;;20.57;66.19
43846;BME280;32485;51.112;13.640;2022-08-03T04:55:30;100279.97;;;20.56;66.09
43846;BME280;32485;51.112;13.640;2022-08-03T04:58:00;100276.06;;;20.57;66.52
43846;BME280;32485;51.112;13.640;2022-08-03T05:00:27;100283.09;;;20.58;66.40
43846;BME280;32485;51.112;13.640;2022-08-03T05:02:55;100280.78;;;20.60;66.42
43846;BME280;32485;51.112;13.640;2022-08-03T05:05:22;100288.28;;;20.70;65.85
43846;BME280;32485;51.112;13.640;2022-08-03T05:07:50;100285.16;;;20.71;65.76
43846;BME280;32485;51.112;13.640;2022-08-03T05:10:17;100286.34;;;20.74;66.14
43846;BME280;32485;51.112;13.640;2022-08-03T05:12:47;100286.38;;;20.81;65.53
43846;BME280;32485;51.112;13.640;2022-08-03T05:15:17;100292.66;;;20.85;65.53
43846;BME280;32485;51.112;13.640;2022-08-03T05:17:45;100288.75;;;20.86;65.67
43846;BME280;32485;51.112;13.640;2022-08-03T05:20:12;100292.69;;;20.93;65.11
43846;BME280;32485;51.112;13.640;2022-08-03T05:22:39;100287.59;;;20.95;65.32
43846;BME280;32485;51.112;13.640;2022-08-03T05:25:07;100284.06;;;20.98;65.27
43846;BME280;32485;51.112;13.640;2022-08-03T05:27:34;100292.72;;;21.00;65.38
43846;BME280;32485;51.112;13.640;2022-08-03T05:30:01;100289.19;;;21.03;65.35
43846;BME280;32485;51.112;13.640;2022-08-03T05:32:30;100295.09;;;21.12;64.80
43846;BME280;32485;51.112;13.640;2022-08-03T05:34:57;100291.97;;;21.17;64.79
43846;BME280;32485;51.112;13.640;2022-08-03T05:37:25;100295.91;;;21.23;64.56
43846;BME280;32485;51.112;13.640;2022-08-03T05:39:52;100287.28;;;21.29;64.37
43846;BME280;32485;51.112;13.640;2022-08-03T05:42:19;100284.16;;;21.34;63.82
43846;BME280;32485;51.112;13.640;2022-08-03T05:44:46;100295.16;;;21.41;63.96
43846;BME280;32485;51.112;13.640;2022-08-03T05:47:13;100293.56;;;21.47;63.51
43846;BME280;32485;51.112;13.640;2022-08-03T05:49:43;100291.25;;;21.53;63.39
43846;BME280;32485;51.112;13.640;2022-08-03T05:52:12;100283.00;;;21.56;63.28
43846;BME280;32485;51.112;13.640;2022-08-03T05:54:39;100287.34;;;21.65;63.15
43846;BME280;32485;51.112;13.640;2022-08-03T05:57:06;100288.91;;;21.69;62.68
43846;BME280;32485;51.112;13.640;2022-08-03T05:59:33;100289.28;;;21.75;62.36
43846;BME280;32485;51.112;13.640;2022-08-03T06:02:00;100298.31;;;21.79;61.70
43846;BME280;32485;51.112;13.640;2022-08-03T06:04:27;100297.53;;;21.86;61.54
43846;BME280;32485;51.112;13.640;2022-08-03T06:06:55;100290.84;;;21.90;61.48
43846;BME280;32485;51.112;13.640;2022-08-03T06:09:22;100295.97;;;21.96;61.06
43846;BME280;32485;51.112;13.640;2022-08-03T06:11:49;100281.78;;;22.01;60.68
43846;BME280;32485;51.112;13.640;2022-08-03T06:14:16;100291.22;;;22.07;60.40
43846;BME280;32485;51.112;13.640;2022-08-03T06:16:43;100292.38;;;22.13;60.41
43846;BME280;32485;51.112;13.640;2022-08-03T06:19:10;100286.50;;;22.18;59.97
43846;BME280;32485;51.112;13.640;2022-08-03T06:21:37;100289.63;;;22.24;59.77
43846;BME280;32485;51.112;13.640;2022-08-03T06:24:07;100294.72;;;22.29;59.80
43846;BME280;32485;51.112;13.640;2022-08-03T06:26:34;100293.94;;;22.36;59.28
43846;BME280;32485;51.112;13.640;2022-08-03T06:29:01;100296.69;;;22.43;58.99
43846;BME280;32485;51.112;13.640;2022-08-03T06:31:28;100292.72;;;22.48;58.81
43846;BME280;32485;51.112;13.640;2022-08-03T06:33:55;100288.78;;;22.52;58.73
43846;BME280;32485;51.112;13.640;2022-08-03T06:36:22;100291.91;;;22.58;58.64
43846;BME280;32485;51.112;13.640;2022-08-03T06:38:50;100289.13;;;22.65;58.37
43846;BME280;32485;51.112;13.640;2022-08-03T06:41:18;100286.34;;;22.72;58.09
43846;BME280;32485;51.112;13.640;2022-08-03T06:43:46;100285.50;;;22.79;57.82
43846;BME280;32485;51.112;13.640;2022-08-03T06:46:13;100285.88;;;22.85;57.49
43846;BME280;32485;51.112;13.640;2022-08-03T06:48:41;100281.53;;;22.87;57.28
43846;BME280;32485;51.112;13.640;2022-08-03T06:51:08;100291.75;;;22.98;57.18
43846;BME280;32485;51.112;13.640;2022-08-03T06:53:35;100285.41;;;23.01;57.06
43846;BME280;32485;51.112;13.640;2022-08-03T06:56:04;100285.38;;;23.08;56.70
43846;BME280;32485;51.112;13.640;2022-08-03T06:58:33;100294.78;;;23.18;56.57
43846;BME280;32485;51.112;13.640;2022-08-03T07:01:00;100293.56;;;23.26;56.47
43846;BME280;32485;51.112;13.640;2022-08-03T07:03:28;100288.41;;;23.32;56.06
43846;BME280;32485;51.112;13.640;2022-08-03T07:05:55;100281.25;;;23.38;56.10
43846;BME280;32485;51.112;13.640;2022-08-03T07:08:22;100296.19;;;23.44;56.00
43846;BME280;32485;51.112;13.640;2022-08-03T07:10:49;100298.09;;;23.51;55.59
43846;BME280;32485;51.112;13.640;2022-08-03T07:13:17;100302.78;;;23.57;55.84
43846;BME280;32485;51.112;13.640;2022-08-03T07:15:45;100292.09;;;23.63;55.54
43846;BME280;32485;51.112;13.640;2022-08-03T07:18:12;100301.47;;;23.73;55.00
43846;BME280;32485;51.112;13.640;2022-08-03T07:20:39;100302.22;;;23.81;54.95
43846;BME280;32485;51.112;13.640;2022-08-03T07:23:07;100295.06;;;23.87;54.93
43846;BME280;32485;51.112;13.640;2022-08-03T07:25:34;100296.19;;;23.93;54.59
43846;BME280;32485;51.112;13.640;2022-08-03T07:28:02;100296.94;;;24.01;54.49
43846;BME280;32485;51.112;13.640;2022-08-03T07:30:29;100289.41;;;24.05;54.33
43846;BME280;32485;51.112;13.640;2022-08-03T07:32:58;100299.19;;;24.13;54.38
43846;BME280;32485;51.112;13.640;2022-08-03T07:35:25;100290.06;;;24.16;53.99
43846;BME280;32485;51.112;13.640;2022-08-03T07:37:52;100285.28;;;24.20;53.74
43846;BME280;32485;51.112;13.640;2022-08-03T07:40:19;100294.59;;;24.34;54.08
43846;BME280;32485;51.112;13.640;2022-08-03T07:42:46;100291.78;;;24.41;53.63
43846;BME280;32485;51.112;13.640;2022-08-03T07:45:13;100288.13;;;24.48;53.44
43846;BME280;32485;51.112;13.640;2022-08-03T07:47:40;100287.28;;;24.54;52.96
43846;BME280;32485;51.112;13.640;2022-08-03T07:50:09;100288.44;;;24.57;52.75
43846;BME280;32485;51.112;13.640;2022-08-03T07:52:36;100289.13;;;24.65;52.65
43846;BME280;32485;51.112;13.640;2022-08-03T07:55:16;100288.84;;;24.55;52.87
43846;BME280;32485;51.112;13.640;2022-08-03T07:57:44;100283.16;;;24.70;52.55
43846;BME280;32485;51.112;13.640;2022-08-03T08:00:17;100292.56;;;24.76;52.57
43846;BME280;32485;51.112;13.640;2022-08-03T08:02:45;100288.88;;;24.86;52.53
43846;BME280;32485;51.112;13.640;2022-08-03T08:05:13;100290.34;;;24.94;52.35
43846;BME280;32485;51.112;13.640;2022-08-03T08:07:40;100279.53;;;25.04;52.31
43846;BME280;32485;51.112;13.640;2022-08-03T08:10:08;100273.19;;;25.07;51.89
43846;BME280;32485;51.112;13.640;2022-08-03T08:12:36;100275.00;;;25.17;51.76
43846;BME280;32485;51.112;13.640;2022-08-03T08:15:06;100272.91;;;25.25;51.28
43846;BME280;32485;51.112;13.640;2022-08-03T08:17:41;100273.63;;;25.33;50.74
43846;BME280;32485;51.112;13.640;2022-08-03T08:20:10;100270.41;;;25.38;50.42
43846;BME280;32485;51.112;13.640;2022-08-03T08:22:39;100277.84;;;25.41;50.58
43846;BME280;32485;51.112;13.640;2022-08-03T08:25:07;100276.47;;;25.53;50.58
43846;BME280;32485;51.112;13.640;2022-08-03T08:27:41;100272.44;;;25.57;50.18
43846;BME280;32485;51.112;13.640;2022-08-03T08:30:10;100273.47;;;25.67;49.73
43846;BME280;32485;51.112;13.640;2022-08-03T08:32:38;100264.25;;;25.74;49.72
43846;BME280;32485;51.112;13.640;2022-08-03T08:35:06;100259.38;;;25.81;49.13
43846;BME280;32485;51.112;13.640;2022-08-03T08:37:34;100269.41;;;25.95;49.38
43846;BME280;32485;51.112;13.640;2022-08-03T08:40:04;100242.63;;;25.89;49.02
43846;BME280;32485;51.112;13.640;2022-08-03T08:42:32;100263.63;;;26.10;48.36
43846;BME280;32485;51.112;13.640;2022-08-03T08:44:59;100259.53;;;26.18;48.10
43846;BME280;32485;51.112;13.640;2022-08-03T08:47:30;100260.28;;;26.19;47.63
43846;BME280;32485;51.112;13.640;2022-08-03T08:49:58;100253.84;;;26.25;48.05
43846;BME280;32485;51.112;13.640;2022-08-03T08:52:28;100256.84;;;26.35;48.13
43846;BME280;32485;51.112;13.640;2022-08-03T08:54:58;100260.66;;;26.41;47.98
43846;BME280;32485;51.112;13.640;2022-08-03T08:57:30;100260.06;;;26.49;47.14
43846;BME280;32485;51.112;13.640;2022-08-03T09:00:00;100251.53;;;26.60;47.13
43846;BME280;32485;51.112;13.640;2022-08-03T09:02:29;100252.19;;;26.68;46.11
43846;BME280;32485;51.112;13.640;2022-08-03T09:04:57;100258.31;;;26.79;46.19
43846;BME280;32485;51.112;13.640;2022-08-03T09:07:25;100257.72;;;26.88;46.37
43846;BME280;32485;51.112;13.640;2022-08-03T09:09:53;100253.19;;;26.94;45.82
43846;BME280;32485;51.112;13.640;2022-08-03T09:12:21;100249.56;;;26.97;46.13
43846;BME280;32485;51.112;13.640;2022-08-03T09:14:49;100244.22;;;27.07;45.56
43846;BME280;32485;51.112;13.640;2022-08-03T09:17:16;100236.91;;;27.13;45.42
43846;BME280;32485;51.112;13.640;2022-08-03T09:20:04;100248.81;;;27.13;44.39
43846;BME280;32485;51.112;13.640;2022-08-03T09:22:32;100240.31;;;27.21;44.24
43846;BME280;32485;51.112;13.640;2022-08-03T09:25:02;100239.25;;;27.31;44.67
43846;BME280;32485;51.112;13.640;2022-08-03T09:27:41;100240.34;;;27.37;44.09
43846;BME280;32485;51.112;13.640;2022-08-03T09:30:15;100233.50;;;27.42;43.49
43846;BME280;32485;51.112;13.640;2022-08-03T09:32:43;100241.88;;;27.55;43.17
43846;BME280;32485;51.112;13.640;2022-08-03T09:35:12;100235.03;;;27.59;42.38
43846;BME280;32485;51.112;13.640;2022-08-03T09:37:40;100241.88;;;27.71;42.22
43846;BME280;32485;51.112;13.640;2022-08-03T09:40:08;100240.03;;;27.81;41.89
43846;BME280;32485;51.112;13.640;2022-08-03T09:42:35;100230.28;;;27.89;41.64
43846;BME280;32485;51.112;13.640;2022-08-03T09:45:05;100241.19;;;27.96;42.11
43846;BME280;32485;51.112;13.640;2022-08-03T09:47:34;100221.25;;;28.01;41.69
43846;BME280;32485;51.112;13.640;2022-08-03T09:50:04;100229.72;;;28.11;40.42
43846;BME280;32485;51.112;13.640;2022-08-03T09:52:34;100228.53;;;28.25;39.72
43846;BME280;32485;51.112;13.640;2022-08-03T09:55:06;100233.19;;;28.28;39.14
43846;BME280;32485;51.112;13.640;2022-08-03T09:57:34;100230.88;;;28.39;38.68
43846;BME280;32485;51.112;13.640;2022-08-03T10:00:08;100233.66;;;28.39;38.56
43846;BME280;32485;51.112;13.640;2022-08-03T10:02:40;100227.13;;;28.46;38.62
43846;BME280;32485;51.112;13.640;2022-08-03T10:05:11;100226.13;;;28.52;38.62
43846;BME280;32485;51.112;13.640;2022-08-03T10:07:43;100215.13;;;28.49;38.22
43846;BME280;32485;51.112;13.640;2022-08-03T10:10:14;100222.38;;;28.59;38.77
43846;BME280;32485;51.112;13.640;2022-08-03T10:12:42;100225.72;;;28.67;39.13
43846;BME280;32485;51.112;13.640;2022-08-03T10:15:10;100213.97;;;28.76;38.78
43846;BME280;32485;51.112;13.640;2022-08-03T10:17:38;100211.06;;;28.79;37.93
43846;BME280;32485;51.112;13.640;2022-08-03T10:20:09;100220.16;;;28.80;37.44
43846;BME280;32485;51.112;13.640;2022-08-03T10:22:39;100208.19;;;28.83;37.88
43846;BME280;32485;51.112;13.640;2022-08-03T10:25:10;100202.94;;;28.85;37.91
43846;BME280;32485;51.112;13.640;2022-08-03T10:27:40;100203.72;;;28.98;37.88
43846;BME280;32485;51.112;13.640;2022-08-03T10:30:10;100209.28;;;28.98;37.25
43846;BME280;32485;51.112;13.640;2022-08-03T10:32:42;100205.47;;;29.05;37.25
43846;BME280;32485;51.112;13.640;2022-08-03T10:35:14;100207.25;;;29.12;37.82
43846;BME280;32485;51.112;13.640;2022-08-03T10:37:44;100203.78;;;29.20;37.45
43846;BME280;32485;51.112;13.640;2022-08-03T10:40:15;100208.91;;;29.22;37.09
43846;BME280;32485;51.112;13.640;2022-08-03T10:42:45;100201.47;;;29.32;36.83
43846;BME280;32485;51.112;13.640;2022-08-03T10:45:18;100198.88;;;29.37;37.40
43846;BME280;32485;51.112;13.640;2022-08-03T10:47:47;100206.53;;;29.46;36.84
43846;BME280;32485;51.112;13.640;2022-08-03T10:50:16;100198.25;;;29.55;36.96
43846;BME280;32485;51.112;13.640;2022-08-03T10:52:55;100198.34;;;29.65;36.55
43846;BME280;32485;51.112;13.640;2022-08-03T10:55:33;100196.31;;;29.65;35.16
43846;BME280;32485;51.112;13.640;2022-08-03T10:58:49;100203.59;;;29.63;35.24
43846;BME280;32485;51.112;13.640;2022-08-03T11:01:18;100204.38;;;29.63;35.31
43846;BME280;32485;51.112;13.640;2022-08-03T11:04:15;100204.63;;;29.56;35.35
43846;BME280;32485;51.112;13.640;2022-08-03T11:06:44;100191.16;;;29.54;35.49
43846;BME280;32485;51.112;13.640;2022-08-03T11:09:17;100191.47;;;29.56;35.33
43846;BME280;32485;51.112;13.640;2022-08-03T11:11:46;100193.34;;;29.60;35.72
43846;BME280;32485;51.112;13.640;2022-08-03T11:14:21;100188.16;;;29.71;34.81
43846;BME280;32485;51.112;13.640;2022-08-03T11:17:04;100184.94;;;29.72;34.80
43846;BME280;32485;51.112;13.640;2022-08-03T11:19:43;100183.34;;;29.84;35.48
43846;BME280;32485;51.112;13.640;2022-08-03T11:22:11;100177.06;;;29.93;35.20
43846;BME280;32485;51.112;13.640;2022-08-03T11:25:00;100175.25;;;29.99;34.37
43846;BME280;32485;51.112;13.640;2022-08-03T11:27:30;100170.19;;;30.07;34.76
43846;BME280;32485;51.112;13.640;2022-08-03T11:30:03;100176.59;;;30.17;34.55
43846;BME280;32485;51.112;13.640;2022-08-03T11:32:58;100174.44;;;30.21;34.38
43846;BME280;32485;51.112;13.640;2022-08-03T11:35:28;100175.72;;;30.29;34.10
43846;BME280;32485;51.112;13.640;2022-08-03T11:38:04;100171.09;;;30.26;33.73
43846;BME280;32485;51.112;13.640;2022-08-03T11:40:35;100156.03;;;30.23;34.12
43846;BME280;32485;51.112;13.640;2022-08-03T11:43:03;100172.03;;;30.32;33.18
43846;BME280;32485;51.112;13.640;2022-08-03T11:45:33;100171.56;;;30.34;33.48
43846;BME280;32485;51.112;13.640;2022-08-03T11:48:15;100165.22;;;30.33;33.83
43846;BME280;32485;51.112;13.640;2022-08-03T11:50:42;100161.69;;;30.42;33.02
43846;BME280;32485;51.112;13.640;2022-08-03T11:53:15;100173.06;;;30.48;33.29
43846;BME280;32485;51.112;13.640;2022-08-03T11:55:45;100149.53;;;30.49;33.06
43846;BME280;32485;51.112;13.640;2022-08-03T11:58:19;100152.31;;;30.49;32.86
43846;BME280;32485;51.112;13.640;2022-08-03T12:00:48;100146.50;;;30.65;33.28
43846;BME280;32485;51.112;13.640;2022-08-03T12:03:17;100162.94;;;30.72;32.29
43846;BME280;32485;51.112;13.640;2022-08-03T12:05:47;100155.50;;;30.79;32.08
43846;BME280;32485;51.112;13.640;2022-08-03T12:08:17;100157.53;;;30.87;32.21
43846;BME280;32485;51.112;13.640;2022-08-03T12:10:49;100152.59;;;30.91;32.66
43846;BME280;32485;51.112;13.640;2022-08-03T12:13:17;100149.38;;;31.02;31.73
43846;BME280;32485;51.112;13.640;2022-08-03T12:15:52;100143.47;;;31.00;32.12
43846;BME280;32485;51.112;13.640;2022-08-03T12:18:21;100161.81;;;31.11;31.46
43846;BME280;32485;51.112;13.640;2022-08-03T12:20:50;100145.34;;;31.13;32.09
43846;BME280;32485;51.112;13.640;2022-08-03T12:23:18;100138.25;;;31.21;32.11
43846;BME280;32485;51.112;13.640;2022-08-03T12:25:46;100129.25;;;31.26;31.34
43846;BME280;32485;51.112;13.640;2022-08-03T12:28:17;100133.59;;;31.36;30.58
43846;BME280;32485;51.112;13.640;2022-08-03T12:30:51;100132.03;;;31.44;30.74
43846;BME280;32485;51.112;13.640;2022-08-03T12:33:23;100132.69;;;31.58;30.53
43846;BME280;32485;51.112;13.640;2022-08-03T12:36:04;100135.16;;;31.65;30.38
43846;BME280;32485;51.112;13.640;2022-08-03T12:38:33;100126.00;;;31.74;29.86
43846;BME280;32485;51.112;13.640;2022-08-03T12:41:04;100130.00;;;31.82;30.17
43846;BME280;32485;51.112;13.640;2022-08-03T12:43:31;100121.44;;;31.95;30.61
43846;BME280;32485;51.112;13.640;2022-08-03T12:46:14;100118.63;;;32.04;30.69
43846;BME280;32485;51.112;13.640;2022-08-03T12:49:15;100121.84;;;32.12;30.45
43846;BME280;32485;51.112;13.640;2022-08-03T12:51:57;100113.34;;;32.16;29.21
43846;BME280;32485;51.112;13.640;2022-08-03T12:54:28;100121.38;;;32.23;28.96
43846;BME280;32485;51.112;13.640;2022-08-03T12:56:58;100102.53;;;32.33;28.90